sensor_id;sensor_type;location;lat;lon;timestamp;pressure;altitude;pressure_sealevel;temperature;humidity
61678;BME280;47575;52.054;4.334;2022-10-15T00:01:05;100970.22;;;13.70;100.00
61678;BME280;47575;52.054;4.334;2022-10-15T00:03:34;100971.22;;;13.67;100.00
61678;BME280;47575;52.054;4.334;2022-10-15T00:06:02;100971.28;;;13.66;100.00
61678;BME280;47575;52.054;4.334;2022-10-15T00:08:30;100971.28;;;13.66;100.00
61678;BME280;47575;52.054;4.334;2022-10-15T00:11:01;100972.22;;;13.65;100.00
61678;BME280;47575;52.054;4.334;2022-10-15T00:13:28;100968.66;;;13.66;100.00
61678;BME280;47575;52.054;4.334;2022-10-15T00:15:55;100970.22;;;13.70;100.00
61678;BME280;47575;52.054;4.334;2022-10-15T00:18:22;100968.31;;;13.73;100.00
61678;BME280;47575;52.054;4.334;2022-10-15T00:20:48;100971.66;;;13.77;100.00
61678;BME280;47575;52.054;4.334;2022-10-15T00:23:15;100980.28;;;13.80;100.00
61678;BME280;47575;52.054;4.334;2022-10-15T00:25:44;100967.84;;;13.84;100.00
61678;BME280;47575;52.054;4.334;2022-10-15T00:28:11;100966.88;;;13.87;100.00
61678;BME280;47575;52.054;4.334;2022-10-15T00:30:38;100965.03;;;13.89;100.00
61678;BME280;47575;52.054;4.334;2022-10-15T00:33:05;100966.56;;;13.93;100.00
61678;BME280;47575;52.054;4.334;2022-10-15T00:35:32;100957.63;;;13.97;100.00
61678;BME280;47575;52.054;4.334;2022-10-15T00:37:59;100957.72;;;13.95;100.00
61678;BME280;47575;52.054;4.334;2022-10-15T00:40:27;100956.63;;;13.99;100.00
61678;BME280;47575;52.054;4.334;2022-10-15T00:42:55;100950.41;;;14.02;100.00
61678;BME280;47575;52.054;4.334;2022-10-15T00:45:22;100946.78;;;14.04;100.00
61678;BME280;47575;52.054;4.334;2022-10-15T00:47:49;100951.03;;;14.07;100.00
61678;BME280;47575;52.054;4.334;2022-10-15T00:50:18;100953.53;;;14.10;100.00
61678;BME280;47575;52.054;4.334;2022-10-15T00:52:52;100954.50;;;14.07;100.00
61678;BME280;47575;52.054;4.334;2022-10-15T00:55:21;100951.88;;;14.07;100.00
61678;BME280;47575;52.054;4.334;2022-10-15T00:57:50;100951.03;;;14.07;100.00
61678;BME280;47575;52.054;4.334;2022-10-15T01:00:19;100949.41;;;14.04;100.00
61678;BME280;47575;52.054;4.334;2022-10-15T01:02:47;100950.13;;;14.08;100.00
61678;BME280;47575;52.054;4.334;2022-10-15T01:05:16;100945.66;;;14.10;100.00
61678;BME280;47575;52.054;4.334;2022-10-15T01:07:43;100947.44;;;14.09;100.00
61678;BME280;47575;52.054;4.334;2022-10-15T01:10:10;100942.94;;;14.11;100.00
61678;BME280;47575;52.054;4.334;2022-10-15T01:12:39;100941.16;;;14.12;100.00
61678;BME280;47575;52.054;4.334;2022-10-15T01:15:08;100944.66;;;14.12;100.00
61678;BME280;47575;52.054;4.334;2022-10-15T01:17:41;100949.06;;;14.12;100.00
61678;BME280;47575;52.054;4.334;2022-10-15T01:20:22;100927.94;;;14.13;100.00
61678;BME280;47575;52.054;4.334;2022-10-15T01:22:56;100925.22;;;14.15;100.00
61678;BME280;47575;52.054;4.334;2022-10-15T01:25:31;100919.09;;;14.14;100.00
61678;BME280;47575;52.054;4.334;2022-10-15T01:28:03;100919.34;;;14.10;100.00
61678;BME280;47575;52.054;4.334;2022-10-15T01:30:43;100923.88;;;14.06;100.00
61678;BME280;47575;52.054;4.334;2022-10-15T01:33:14;100917.03;;;14.02;100.00
61678;BME280;47575;52.054;4.334;2022-10-15T01:35:45;100917.25;;;13.98;100.00
61678;BME280;47575;52.054;4.334;2022-10-15T01:38:18;100913.25;;;13.89;100.00
61678;BME280;47575;52.054;4.334;2022-10-15T01:40:47;100906.47;;;13.83;100.00
61678;BME280;47575;52.054;4.334;2022-10-15T01:43:16;100909.53;;;13.74;100.00
61678;BME280;47575;52.054;4.334;2022-10-15T01:46:09;100909.66;;;13.71;100.00
61678;BME280;47575;52.054;4.334;2022-10-15T01:48:52;100902.91;;;13.66;100.00
61678;BME280;47575;52.054;4.334;2022-10-15T01:51:21;100906.63;;;13.60;100.00
61678;BME280;47575;52.054;4.334;2022-10-15T01:53:50;100904.94;;;13.59;100.00
61678;BME280;47575;52.054;4.334;2022-10-15T01:56:19;100904.34;;;13.52;100.00
61678;BME280;47575;52.054;4.334;2022-10-15T01:58:47;100896.47;;;13.52;100.00
61678;BME280;47575;52.054;4.334;2022-10-15T02:01:17;100896.63;;;13.48;100.00
61678;BME280;47575;52.054;4.334;2022-10-15T02:03:45;100888.91;;;13.45;100.00
61678;BME280;47575;52.054;4.334;2022-10-15T02:06:12;100896.00;;;13.43;100.00
61678;BME280;47575;52.054;4.334;2022-10-15T02:08:43;100889.91;;;13.42;100.00
61678;BME280;47575;52.054;4.334;2022-10-15T02:11:11;100888.81;;;13.46;100.00
61678;BME280;47575;52.054;4.334;2022-10-15T02:13:42;100882.78;;;13.44;100.00
61678;BME280;47575;52.054;4.334;2022-10-15T02:16:16;100881.16;;;13.42;100.00
61678;BME280;47575;52.054;4.334;2022-10-15T02:18:54;100868.72;;;13.45;100.00
61678;BME280;47575;52.054;4.334;2022-10-15T02:21:27;100869.78;;;13.41;100.00
61678;BME280;47575;52.054;4.334;2022-10-15T02:23:56;100859.28;;;13.41;100.00
61678;BME280;47575;52.054;4.334;2022-10-15T02:26:26;100864.38;;;13.44;100.00
61678;BME280;47575;52.054;4.334;2022-10-15T02:28:54;100866.22;;;13.42;100.00
61678;BME280;47575;52.054;4.334;2022-10-15T02:31:23;100858.34;;;13.42;100.00
61678;BME280;47575;52.054;4.334;2022-10-15T02:33:53;100852.22;;;13.42;100.00
61678;BME280;47575;52.054;4.334;2022-10-15T02:36:22;100855.91;;;13.38;100.00
61678;BME280;47575;52.054;4.334;2022-10-15T02:38:49;100849.78;;;13.37;100.00
61678;BME280;47575;52.054;4.334;2022-10-15T02:41:17;100844.59;;;13.36;100.00
61678;BME280;47575;52.054;4.334;2022-10-15T02:43:46;100841.19;;;13.34;100.00
61678;BME280;47575;52.054;4.334;2022-10-15T02:46:13;100852.56;;;13.34;100.00
61678;BME280;47575;52.054;4.334;2022-10-15T02:48:43;100850.78;;;13.35;100.00
61678;BME280;47575;52.054;4.334;2022-10-15T02:51:11;100855.25;;;13.33;100.00
61678;BME280;47575;52.054;4.334;2022-10-15T02:53:38;100844.59;;;13.36;100.00
61678;BME280;47575;52.054;4.334;2022-10-15T02:56:05;100849.00;;;13.35;100.00
61678;BME280;47575;52.054;4.334;2022-10-15T02:58:32;100838.44;;;13.37;100.00
61678;BME280;47575;52.054;4.334;2022-10-15T03:00:59;100834.88;;;13.38;100.00
61678;BME280;47575;52.054;4.334;2022-10-15T03:03:27;100833.03;;;13.40;100.00
61678;BME280;47575;52.054;4.334;2022-10-15T03:05:54;100838.34;;;13.38;100.00
61678;BME280;47575;52.054;4.334;2022-10-15T03:08:22;100835.94;;;13.34;100.00
61678;BME280;47575;52.054;4.334;2022-10-15T03:10:49;100829.81;;;13.33;100.00
61678;BME280;47575;52.054;4.334;2022-10-15T03:13:16;100832.38;;;13.35;100.00
61678;BME280;47575;52.054;4.334;2022-10-15T03:15:49;100831.38;;;13.37;100.00
61678;BME280;47575;52.054;4.334;2022-10-15T03:18:16;100823.69;;;13.33;100.00
61678;BME280;47575;52.054;4.334;2022-10-15T03:20:44;100828.31;;;13.27;100.00
61678;BME280;47575;52.054;4.334;2022-10-15T03:23:18;100829.34;;;13.23;100.00
61678;BME280;47575;52.054;4.334;2022-10-15T03:25:46;100824.28;;;13.19;100.00
61678;BME280;47575;52.054;4.334;2022-10-15T03:28:20;100828.72;;;13.17;100.00
61678;BME280;47575;52.054;4.334;2022-10-15T03:30:48;100822.00;;;13.11;100.00
61678;BME280;47575;52.054;4.334;2022-10-15T03:33:15;100828.34;;;13.06;100.00
61678;BME280;47575;52.054;4.334;2022-10-15T03:35:43;100823.22;;;13.02;100.00
61678;BME280;47575;52.054;4.334;2022-10-15T03:38:11;100830.50;;;12.96;100.00
61678;BME280;47575;52.054;4.334;2022-10-15T03:40:38;100827.09;;;12.94;100.00
61678;BME280;47575;52.054;4.334;2022-10-15T03:43:29;100836.81;;;12.92;100.00
61678;BME280;47575;52.054;4.334;2022-10-15T03:46:00;100822.09;;;12.88;100.00
61678;BME280;47575;52.054;4.334;2022-10-15T03:48:28;100826.56;;;12.86;100.00
61678;BME280;47575;52.054;4.334;2022-10-15T03:50:55;100834.44;;;12.86;100.00
61678;BME280;47575;52.054;4.334;2022-10-15T03:53:22;100839.44;;;12.92;100.00
61678;BME280;47575;52.054;4.334;2022-10-15T03:55:49;100841.81;;;12.98;100.00
61678;BME280;47575;52.054;4.334;2022-10-15T03:58:16;100847.72;;;13.03;100.00
61678;BME280;47575;52.054;4.334;2022-10-15T04:00:52;100843.00;;;13.11;100.00
61678;BME280;47575;52.054;4.334;2022-10-15T04:03:19;100849.75;;;13.17;100.00
61678;BME280;47575;52.054;4.334;2022-10-15T04:05:48;100847.81;;;13.22;100.00
61678;BME280;47575;52.054;4.334;2022-10-15T04:08:16;100852.94;;;13.25;100.00
61678;BME280;47575;52.054;4.334;2022-10-15T04:10:42;100851.16;;;13.25;100.00
61678;BME280;47575;52.054;4.334;2022-10-15T04:13:10;100848.28;;;13.32;100.00
61678;BME280;47575;52.054;4.334;2022-10-15T04:15:37;100852.59;;;13.33;100.00
61678;BME280;47575;52.054;4.334;2022-10-15T04:18:09;100849.88;;;13.36;100.00
61678;BME280;47575;52.054;4.334;2022-10-15T04:20:38;100844.59;;;13.36;100.00
61678;BME280;47575;52.054;4.334;2022-10-15T04:23:20;100847.16;;;13.37;100.00
61678;BME280;47575;52.054;4.334;2022-10-15T04:26:07;100847.09;;;13.39;100.00
61678;BME280;47575;52.054;4.334;2022-10-15T04:28:35;100833.03;;;13.40;100.00
61678;BME280;47575;52.054;4.334;2022-10-15T04:31:02;100831.31;;;13.39;100.00
61678;BME280;47575;52.054;4.334;2022-10-15T04:33:31;100829.47;;;13.41;100.00
61678;BME280;47575;52.054;4.334;2022-10-15T04:36:00;100831.38;;;13.37;100.00
61678;BME280;47575;52.054;4.334;2022-10-15T04:38:43;100829.03;;;13.31;100.00
61678;BME280;47575;52.054;4.334;2022-10-15T04:41:10;100832.50;;;13.32;100.00
61678;BME280;47575;52.054;4.334;2022-10-15T04:43:49;100828.06;;;13.34;100.00
61678;BME280;47575;52.054;4.334;2022-10-15T04:46:17;100832.25;;;13.38;100.00
61678;BME280;47575;52.054;4.334;2022-10-15T04:48:46;100840.06;;;13.39;100.00
61678;BME280;47575;52.054;4.334;2022-10-15T04:51:14;100837.16;;;13.45;100.00
61678;BME280;47575;52.054;4.334;2022-10-15T04:53:59;100831.81;;;13.47;100.00
61678;BME280;47575;52.054;4.334;2022-10-15T04:56:28;100829.19;;;13.47;100.00
61678;BME280;47575;52.054;4.334;2022-10-15T04:58:55;100832.56;;;13.50;100.00
61678;BME280;47575;52.054;4.334;2022-10-15T05:01:25;100833.53;;;13.48;100.00
61678;BME280;47575;52.054;4.334;2022-10-15T05:04:05;100828.41;;;13.45;100.00
61678;BME280;47575;52.054;4.334;2022-10-15T05:06:32;100836.25;;;13.46;100.00
61678;BME280;47575;52.054;4.334;2022-10-15T05:09:13;100835.31;;;13.47;100.00
61678;BME280;47575;52.054;4.334;2022-10-15T05:11:45;100831.81;;;13.47;100.00
61678;BME280;47575;52.054;4.334;2022-10-15T05:14:13;100827.38;;;13.49;100.00
61678;BME280;47575;52.054;4.334;2022-10-15T05:16:39;100833.53;;;13.48;100.00
61678;BME280;47575;52.054;4.334;2022-10-15T05:19:09;100826.53;;;13.48;100.00
61678;BME280;47575;52.054;4.334;2022-10-15T05:21:38;100823.75;;;13.51;100.00
61678;BME280;47575;52.054;4.334;2022-10-15T05:24:12;100821.19;;;13.50;100.00
61678;BME280;47575;52.054;4.334;2022-10-15T05:26:57;100818.56;;;13.50;100.00
61678;BME280;47575;52.054;4.334;2022-10-15T05:29:25;100822.03;;;13.50;100.00
61678;BME280;47575;52.054;4.334;2022-10-15T05:31:53;100814.22;;;13.49;100.00
61678;BME280;47575;52.054;4.334;2022-10-15T05:34:26;100822.03;;;13.50;100.00
61678;BME280;47575;52.054;4.334;2022-10-15T05:37:10;100812.38;;;13.51;100.00
61678;BME280;47575;52.054;4.334;2022-10-15T05:39:39;100813.88;;;13.56;100.00
61678;BME280;47575;52.054;4.334;2022-10-15T05:42:07;100815.78;;;13.53;100.00
61678;BME280;47575;52.054;4.334;2022-10-15T05:44:41;100817.38;;;13.57;100.00
61678;BME280;47575;52.054;4.334;2022-10-15T05:47:08;100825.19;;;13.58;100.00
61678;BME280;47575;52.054;4.334;2022-10-15T05:49:39;100821.69;;;13.58;100.00
61678;BME280;47575;52.054;4.334;2022-10-15T05:52:11;100824.34;;;13.58;100.00
61678;BME280;47575;52.054;4.334;2022-10-15T05:54:57;100824.97;;;13.63;100.00
61678;BME280;47575;52.054;4.334;2022-10-15T05:57:24;100829.66;;;13.56;100.00
61678;BME280;47575;52.054;4.334;2022-10-15T05:59:51;100827.66;;;13.62;100.00
61678;BME280;47575;52.054;4.334;2022-10-15T06:02:18;100825.19;;;13.58;100.00
61678;BME280;47575;52.054;4.334;2022-10-15T06:04:47;100816.28;;;13.61;100.00
61678;BME280;47575;52.054;4.334;2022-10-15T06:07:14;100812.03;;;13.58;100.00
61678;BME280;47575;52.054;4.334;2022-10-15T06:09:41;100813.94;;;13.55;100.00
61678;BME280;47575;52.054;4.334;2022-10-15T06:12:08;100810.94;;;13.63;100.00
61678;BME280;47575;52.054;4.334;2022-10-15T06:14:35;100803.28;;;13.58;100.00
61678;BME280;47575;52.054;4.334;2022-10-15T06:17:05;100810.41;;;13.56;100.00
61678;BME280;47575;52.054;4.334;2022-10-15T06:19:32;100817.56;;;13.52;100.00
61678;BME280;47575;52.054;4.334;2022-10-15T06:22:00;100816.56;;;13.55;100.00
61678;BME280;47575;52.054;4.334;2022-10-15T06:24:28;100821.56;;;13.61;100.00
61678;BME280;47575;52.054;4.334;2022-10-15T06:26:56;100819.91;;;13.58;100.00
61678;BME280;47575;52.054;4.334;2022-10-15T06:29:23;100811.75;;;13.65;100.00
61678;BME280;47575;52.054;4.334;2022-10-15T06:31:53;100816.22;;;13.63;100.00
61678;BME280;47575;52.054;4.334;2022-10-15T06:34:20;100812.53;;;13.67;100.00
61678;BME280;47575;52.054;4.334;2022-10-15T06:36:47;100814.38;;;13.65;100.00
61678;BME280;47575;52.054;4.334;2022-10-15T06:39:15;100822.06;;;13.69;100.00
61678;BME280;47575;52.054;4.334;2022-10-15T06:41:43;100811.59;;;13.68;100.00
61678;BME280;47575;52.054;4.334;2022-10-15T06:44:10;100809.84;;;13.68;100.00
61678;BME280;47575;52.054;4.334;2022-10-15T06:46:37;100815.59;;;13.76;100.00
61678;BME280;47575;52.054;4.334;2022-10-15T06:49:04;100819.94;;;13.77;100.00
61678;BME280;47575;52.054;4.334;2022-10-15T06:51:33;100817.19;;;13.80;100.00
61678;BME280;47575;52.054;4.334;2022-10-15T06:54:01;100816.09;;;13.84;100.00
61678;BME280;47575;52.054;4.334;2022-10-15T06:56:30;100820.38;;;13.87;100.00
61678;BME280;47575;52.054;4.334;2022-10-15T06:58:57;100824.72;;;13.88;100.00
61678;BME280;47575;52.054;4.334;2022-10-15T07:01:24;100826.25;;;13.92;100.00
61678;BME280;47575;52.054;4.334;2022-10-15T07:03:51;100830.47;;;13.96;100.00
61678;BME280;47575;52.054;4.334;2022-10-15T07:06:18;100823.59;;;13.94;100.00
61678;BME280;47575;52.054;4.334;2022-10-15T07:08:45;100823.50;;;13.95;100.00
61678;BME280;47575;52.054;4.334;2022-10-15T07:11:11;100821.81;;;13.94;100.00
61678;BME280;47575;52.054;4.334;2022-10-15T07:13:40;100811.91;;;13.99;100.00
61678;BME280;47575;52.054;4.334;2022-10-15T07:16:08;100808.41;;;13.99;100.00
61678;BME280;47575;52.054;4.334;2022-10-15T07:18:35;100814.41;;;14.02;100.00
61678;BME280;47575;52.054;4.334;2022-10-15T07:21:03;100809.22;;;14.01;100.00
61678;BME280;47575;52.054;4.334;2022-10-15T07:23:31;100803.16;;;13.99;100.00
61678;BME280;47575;52.054;4.334;2022-10-15T07:25:58;100805.88;;;13.97;100.00
61678;BME280;47575;52.054;4.334;2022-10-15T07:28:25;100810.91;;;14.02;100.00
61678;BME280;47575;52.054;4.334;2022-10-15T07:30:54;100804.81;;;14.01;100.00
61678;BME280;47575;52.054;4.334;2022-10-15T07:33:25;100800.44;;;14.00;100.00
61678;BME280;47575;52.054;4.334;2022-10-15T07:36:01;100796.34;;;13.95;100.00
61678;BME280;47575;52.054;4.334;2022-10-15T07:38:31;100821.38;;;14.03;100.00
61678;BME280;47575;52.054;4.334;2022-10-15T07:40:59;100818.66;;;14.05;100.00
61678;BME280;47575;52.054;4.334;2022-10-15T07:43:26;100812.09;;;14.13;100.00
61678;BME280;47575;52.054;4.334;2022-10-15T07:45:55;100807.00;;;14.10;100.00
61678;BME280;47575;52.054;4.334;2022-10-15T07:48:22;100801.22;;;14.21;100.00
61678;BME280;47575;52.054;4.334;2022-10-15T07:50:52;100804.66;;;14.23;100.00
61678;BME280;47575;52.054;4.334;2022-10-15T07:53:19;100796.38;;;14.31;100.00
61678;BME280;47575;52.054;4.334;2022-10-15T07:55:48;100798.63;;;14.38;100.00
61678;BME280;47575;52.054;4.334;2022-10-15T07:58:16;100802.97;;;14.39;100.00
61678;BME280;47575;52.054;4.334;2022-10-15T08:00:42;100789.38;;;14.49;100.00
61678;BME280;47575;52.054;4.334;2022-10-15T08:03:11;100807.13;;;14.62;100.00
61678;BME280;47575;52.054;4.334;2022-10-15T08:05:38;100799.91;;;14.66;100.00
61678;BME280;47575;52.054;4.334;2022-10-15T08:08:05;100804.03;;;14.89;100.00
61678;BME280;47575;52.054;4.334;2022-10-15T08:10:31;100795.28;;;14.88;100.00
61678;BME280;47575;52.054;4.334;2022-10-15T08:12:58;100799.31;;;14.95;100.00
61678;BME280;47575;52.054;4.334;2022-10-15T08:15:25;100791.50;;;14.94;100.00
61678;BME280;47575;52.054;4.334;2022-10-15T08:17:53;100787.25;;;14.91;100.00
61678;BME280;47575;52.054;4.334;2022-10-15T08:20:21;100793.91;;;14.99;100.00
61678;BME280;47575;52.054;4.334;2022-10-15T08:22:48;100801.56;;;15.03;100.00
61678;BME280;47575;52.054;4.334;2022-10-15T08:25:15;100800.63;;;14.87;100.00
61678;BME280;47575;52.054;4.334;2022-10-15T08:27:42;100792.31;;;15.12;100.00
61678;BME280;47575;52.054;4.334;2022-10-15T08:30:09;100787.91;;;15.12;100.00
61678;BME280;47575;52.054;4.334;2022-10-15T08:32:36;100783.72;;;15.08;100.00
61678;BME280;47575;52.054;4.334;2022-10-15T08:35:03;100789.28;;;15.19;100.00
61678;BME280;47575;52.054;4.334;2022-10-15T08:37:32;100795.63;;;15.33;100.00
61678;BME280;47575;52.054;4.334;2022-10-15T08:39:59;100793.53;;;15.39;100.00
61678;BME280;47575;52.054;4.334;2022-10-15T08:42:28;100786.75;;;15.51;100.00
61678;BME280;47575;52.054;4.334;2022-10-15T08:44:57;100793.81;;;15.50;100.00
61678;BME280;47575;52.054;4.334;2022-10-15T08:47:28;100784.75;;;15.39;100.00
61678;BME280;47575;52.054;4.334;2022-10-15T08:49:57;100787.31;;;15.40;100.00
61678;BME280;47575;52.054;4.334;2022-10-15T08:52:25;100780.69;;;15.16;100.00
61678;BME280;47575;52.054;4.334;2022-10-15T08:54:57;100783.63;;;15.27;100.00
61678;BME280;47575;52.054;4.334;2022-10-15T08:57:30;100776.03;;;15.21;100.00
61678;BME280;47575;52.054;4.334;2022-10-15T09:00:00;100775.41;;;15.16;100.00
61678;BME280;47575;52.054;4.334;2022-10-15T09:02:29;100773.28;;;15.07;100.00
61678;BME280;47575;52.054;4.334;2022-10-15T09:05:00;100780.06;;;15.11;100.00
61678;BME280;47575;52.054;4.334;2022-10-15T09:07:34;100785.81;;;15.02;100.00
61678;BME280;47575;52.054;4.334;2022-10-15T09:10:09;100768.63;;;14.94;100.00
61678;BME280;47575;52.054;4.334;2022-10-15T09:12:41;100766.84;;;14.95;100.00
61678;BME280;47575;52.054;4.334;2022-10-15T09:15:12;100766.53;;;14.84;100.00
61678;BME280;47575;52.054;4.334;2022-10-15T09:17:40;100773.53;;;14.85;100.00
61678;BME280;47575;52.054;4.334;2022-10-15T09:20:13;100769.47;;;14.95;100.00
61678;BME280;47575;52.054;4.334;2022-10-15T09:22:42;100771.16;;;14.96;100.00
61678;BME280;47575;52.054;4.334;2022-10-15T09:25:17;100767.13;;;14.89;100.00
61678;BME280;47575;52.054;4.334;2022-10-15T09:27:45;100764.75;;;15.02;100.00
61678;BME280;47575;52.054;4.334;2022-10-15T09:30:17;100760.63;;;15.13;100.00
61678;BME280;47575;52.054;4.334;2022-10-15T09:32:49;100758.84;;;15.14;100.00
61678;BME280;47575;52.054;4.334;2022-10-15T09:35:19;100763.00;;;15.18;100.00
61678;BME280;47575;52.054;4.334;2022-10-15T09:37:49;100761.78;;;15.08;100.00
61678;BME280;47575;52.054;4.334;2022-10-15T09:40:23;100746.19;;;15.03;100.00
61678;BME280;47575;52.054;4.334;2022-10-15T09:42:54;100749.69;;;15.04;100.00
61678;BME280;47575;52.054;4.334;2022-10-15T09:45:22;100749.44;;;15.08;100.00
61678;BME280;47575;52.054;4.334;2022-10-15T09:47:50;100743.03;;;14.96;100.00
61678;BME280;47575;52.054;4.334;2022-10-15T09:50:17;100744.84;;;15.12;100.00
61678;BME280;47575;52.054;4.334;2022-10-15T09:52:46;100745.47;;;15.17;100.00
61678;BME280;47575;52.054;4.334;2022-10-15T09:55:21;100734.00;;;15.18;100.00
61678;BME280;47575;52.054;4.334;2022-10-15T09:57:55;100729.53;;;15.03;100.00
61678;BME280;47575;52.054;4.334;2022-10-15T10:00:24;100731.50;;;14.99;100.00
61678;BME280;47575;52.054;4.334;2022-10-15T10:03:02;100735.13;;;14.96;100.00
61678;BME280;47575;52.054;4.334;2022-10-15T10:05:30;100722.72;;;14.99;100.00
61678;BME280;47575;52.054;4.334;2022-10-15T10:08:07;100730.31;;;15.05;100.00
61678;BME280;47575;52.054;4.334;2022-10-15T10:10:35;100726.41;;;15.12;100.00
61678;BME280;47575;52.054;4.334;2022-10-15T10:13:06;100732.16;;;15.20;100.00
61678;BME280;47575;52.054;4.334;2022-10-15T10:15:43;100733.31;;;15.14;100.00
61678;BME280;47575;52.054;4.334;2022-10-15T10:18:16;100727.50;;;15.08;100.00
61678;BME280;47575;52.054;4.334;2022-10-15T10:20:51;100727.34;;;15.11;100.00
61678;BME280;47575;52.054;4.334;2022-10-15T10:23:20;100727.34;;;15.11;100.00
61678;BME280;47575;52.054;4.334;2022-10-15T10:25:48;100722.72;;;14.99;100.00
61678;BME280;47575;52.054;4.334;2022-10-15T10:28:18;100735.91;;;14.99;100.00
61678;BME280;47575;52.054;4.334;2022-10-15T10:30:48;100724.91;;;14.90;100.00
61678;BME280;47575;52.054;4.334;2022-10-15T10:33:19;100726.72;;;14.90;100.00
61678;BME280;47575;52.054;4.334;2022-10-15T10:35:47;100721.56;;;14.87;100.00
61678;BME280;47575;52.054;4.334;2022-10-15T10:38:17;100720.69;;;15.04;100.00
61678;BME280;47575;52.054;4.334;2022-10-15T10:40:48;100727.28;;;14.95;100.00
61678;BME280;47575;52.054;4.334;2022-10-15T10:43:18;100717.69;;;14.94;100.00
61678;BME280;47575;52.054;4.334;2022-10-15T10:45:54;100728.00;;;14.99;100.00
61678;BME280;47575;52.054;4.334;2022-10-15T10:48:22;100727.50;;;15.08;100.00
61678;BME280;47575;52.054;4.334;2022-10-15T10:51:00;100723.19;;;15.07;100.00
61678;BME280;47575;52.054;4.334;2022-10-15T10:53:27;100719.69;;;15.06;100.00
61678;BME280;47575;52.054;4.334;2022-10-15T10:55:54;100722.16;;;15.09;100.00
61678;BME280;47575;52.054;4.334;2022-10-15T10:58:26;100714.25;;;15.09;100.00
61678;BME280;47575;52.054;4.334;2022-10-15T11:00:53;100706.66;;;15.03;100.00
61678;BME280;47575;52.054;4.334;2022-10-15T11:03:29;100710.84;;;15.07;100.00
61678;BME280;47575;52.054;4.334;2022-10-15T11:05:58;100713.84;;;15.17;100.00
61678;BME280;47575;52.054;4.334;2022-10-15T11:08:29;100717.00;;;15.23;100.00
61678;BME280;47575;52.054;4.334;2022-10-15T11:11:02;100714.28;;;15.25;100.00
61678;BME280;47575;52.054;4.334;2022-10-15T11:13:37;100711.50;;;15.28;100.00
61678;BME280;47575;52.054;4.334;2022-10-15T11:16:10;100706.88;;;15.16;100.00
61678;BME280;47575;52.054;4.334;2022-10-15T11:18:46;100705.84;;;15.18;100.00
61678;BME280;47575;52.054;4.334;2022-10-15T11:21:16;100717.31;;;15.17;100.00
61678;BME280;47575;52.054;4.334;2022-10-15T11:24:02;100709.09;;;15.23;100.00
61678;BME280;47575;52.054;4.334;2022-10-15T11:26:37;100714.81;;;15.32;100.00
61678;BME280;47575;52.054;4.334;2022-10-15T11:29:07;100707.22;;;15.26;100.00
61678;BME280;47575;52.054;4.334;2022-10-15T11:31:38;100711.66;;;15.25;100.00
61678;BME280;47575;52.054;4.334;2022-10-15T11:34:15;100713.97;;;15.31;100.00
61678;BME280;47575;52.054;4.334;2022-10-15T11:36:53;100720.09;;;15.32;100.00
61678;BME280;47575;52.054;4.334;2022-10-15T11:39:28;100702.31;;;15.35;100.00
61678;BME280;47575;52.054;4.334;2022-10-15T11:42:00;100717.78;;;15.41;100.00
61678;BME280;47575;52.054;4.334;2022-10-15T11:44:33;100713.81;;;15.50;100.00
61678;BME280;47575;52.054;4.334;2022-10-15T11:47:12;100712.19;;;15.47;100.00
61678;BME280;47575;52.054;4.334;2022-10-15T11:49:42;100716.66;;;15.63;100.00
61678;BME280;47575;52.054;4.334;2022-10-15T11:52:28;100717.84;;;15.57;100.00
61678;BME280;47575;52.054;4.334;2022-10-15T11:55:00;100724.50;;;15.64;100.00
61678;BME280;47575;52.054;4.334;2022-10-15T11:57:28;100720.22;;;15.62;100.00
61678;BME280;47575;52.054;4.334;2022-10-15T11:59:59;100725.19;;;15.68;100.00
61678;BME280;47575;52.054;4.334;2022-10-15T12:02:28;100724.13;;;15.86;100.00
61678;BME280;47575;52.054;4.334;2022-10-15T12:04:57;100729.84;;;15.78;100.00
61678;BME280;47575;52.054;4.334;2022-10-15T12:07:26;100745.19;;;16.03;100.00
61678;BME280;47575;52.054;4.334;2022-10-15T12:09:54;100748.81;;;16.01;100.00
61678;BME280;47575;52.054;4.334;2022-10-15T12:12:25;100750.88;;;16.12;100.00
61678;BME280;47575;52.054;4.334;2022-10-15T12:15:02;100741.69;;;16.03;100.00
61678;BME280;47575;52.054;4.334;2022-10-15T12:17:39;100754.09;;;16.01;100.00
61678;BME280;47575;52.054;4.334;2022-10-15T12:20:11;100747.41;;;15.95;100.00
61678;BME280;47575;52.054;4.334;2022-10-15T12:22:40;100730.25;;;16.18;100.00
61678;BME280;47575;52.054;4.334;2022-10-15T12:25:41;100734.97;;;16.73;100.00
61678;BME280;47575;52.054;4.334;2022-10-15T12:28:12;100743.44;;;16.94;100.00
61678;BME280;47575;52.054;4.334;2022-10-15T12:30:42;100759.13;;;17.11;100.00
61678;BME280;47575;52.054;4.334;2022-10-15T12:33:23;100759.13;;;17.26;100.00
61678;BME280;47575;52.054;4.334;2022-10-15T12:35:53;100759.41;;;17.07;100.00
61678;BME280;47575;52.054;4.334;2022-10-15T12:38:24;100753.84;;;17.26;100.00
61678;BME280;47575;52.054;4.334;2022-10-15T12:40:56;100760.94;;;17.25;100.00
61678;BME280;47575;52.054;4.334;2022-10-15T12:43:24;100778.34;;;17.29;100.00
61678;BME280;47575;52.054;4.334;2022-10-15T12:45:54;100772.94;;;17.16;100.00
61678;BME280;47575;52.054;4.334;2022-10-15T12:48:29;100775.44;;;17.04;100.00
61678;BME280;47575;52.054;4.334;2022-10-15T12:53:43;100785.06;;;17.05;100.00
61678;BME280;47575;52.054;4.334;2022-10-15T12:56:11;100793.69;;;17.08;100.00
61678;BME280;47575;52.054;4.334;2022-10-15T12:58:40;100800.44;;;17.28;100.00